createdAt,value
2019-02-27T00:01:23.220Z,30.67
2019-02-27T00:03:50.237Z,26.57
2019-02-27T00:06:17.206Z,24.77
2019-02-27T00:08:44.302Z,26.73
2019-02-27T00:11:12.380Z,29.60
2019-02-27T00:13:39.948Z,22.93
2019-02-27T00:16:10.833Z,21.70
2019-02-27T00:18:35.697Z,22.80
2019-02-27T00:21:02.620Z,23.57
2019-02-27T00:23:29.533Z,23.27
2019-02-27T00:25:56.461Z,30.37
2019-02-27T00:28:23.992Z,23.93
2019-02-27T00:30:51.262Z,25.57
2019-02-27T00:33:18.193Z,27.10
2019-02-27T00:35:45.115Z,28.20
2019-02-27T00:38:12.012Z,24.80
2019-02-27T00:40:39.502Z,22.40
2019-02-27T00:43:06.436Z,21.57
2019-02-27T00:45:33.357Z,25.43
2019-02-27T00:48:00.273Z,24.90
2019-02-27T00:50:27.223Z,20.97
2019-02-27T00:52:54.134Z,25.00
2019-02-27T00:55:21.117Z,22.97
2019-02-27T00:57:48.377Z,22.13
2019-02-27T01:00:15.894Z,25.13
2019-02-27T01:02:42.848Z,21.83
2019-02-27T01:05:09.954Z,23.33
2019-02-27T01:07:36.836Z,21.57
2019-02-27T01:10:04.966Z,27.87
2019-02-27T01:12:31.922Z,23.40
2019-02-27T01:14:58.866Z,25.27
2019-02-27T01:17:25.771Z,23.13
2019-02-27T01:19:52.752Z,29.87
2019-02-27T01:22:19.660Z,21.13
2019-02-27T01:24:49.933Z,24.07
2019-02-27T01:27:15.520Z,24.20
2019-02-27T01:29:42.449Z,22.20
2019-02-27T01:32:09.430Z,20.90
2019-02-27T01:34:36.387Z,23.50
2019-02-27T01:37:03.349Z,25.00
2019-02-27T01:39:30.267Z,30.07
2019-02-27T01:41:57.971Z,24.90
2019-02-27T01:44:25.465Z,22.63
2019-02-27T01:46:54.551Z,22.90
2019-02-27T01:49:21.547Z,24.10
2019-02-27T01:51:48.494Z,27.23
2019-02-27T01:54:15.739Z,24.10
2019-02-27T01:56:42.739Z,27.73
2019-02-27T01:59:09.653Z,25.77
2019-02-27T02:01:36.580Z,21.83
2019-02-27T02:04:03.475Z,26.30
2019-02-27T02:06:32.450Z,22.50
2019-02-27T02:09:30.208Z,20.90
2019-02-27T02:11:57.148Z,27.07
2019-02-27T02:15:06.443Z,19.53
2019-02-27T02:18:01.327Z,23.17
2019-02-27T02:20:53.102Z,20.83
2019-02-27T02:23:52.621Z,23.70
2019-02-27T02:26:37.918Z,22.47
2019-02-27T02:29:38.375Z,25.23
2019-02-27T02:32:17.345Z,23.53
2019-02-27T02:34:49.819Z,24.23
2019-02-27T02:37:58.097Z,22.57
2019-02-27T02:41:08.467Z,22.57
2019-02-27T02:44:20.713Z,20.60
2019-02-27T02:47:33.004Z,21.93
2019-02-27T02:50:54.368Z,26.93
2019-02-27T02:53:48.957Z,20.80
2019-02-27T02:56:34.098Z,23.67
2019-02-27T02:59:51.960Z,27.03
2019-02-27T03:03:01.916Z,22.77
2019-02-27T03:06:19.121Z,32.23
2019-02-27T03:09:33.867Z,22.50
2019-02-27T03:12:37.582Z,23.73
2019-02-27T03:15:14.307Z,22.30
2019-02-27T03:18:13.878Z,24.63
2019-02-27T03:21:06.506Z,20.40
2019-02-27T03:23:55.620Z,19.53
2019-02-27T03:26:34.069Z,19.43
2019-02-27T03:29:38.865Z,22.03
2019-02-27T03:32:17.369Z,21.73
2019-02-27T03:35:44.496Z,18.27
2019-02-27T03:38:59.259Z,20.90
2019-02-27T03:42:00.991Z,21.20
2019-02-27T03:45:15.355Z,17.60
2019-02-27T03:48:07.425Z,21.50
2019-02-27T03:50:51.754Z,18.10
2019-02-27T03:53:50.472Z,20.93
2019-02-27T03:56:54.588Z,16.50
2019-02-27T04:00:18.098Z,19.53
2019-02-27T04:03:29.027Z,20.50
2019-02-27T04:06:40.827Z,21.20
2019-02-27T04:09:09.238Z,23.17
2019-02-27T04:11:41.537Z,21.67
2019-02-27T04:14:40.295Z,18.13
2019-02-27T04:17:06.170Z,25.40
2019-02-27T04:19:31.269Z,17.17
2019-02-27T04:22:01.117Z,19.07
2019-02-27T04:24:27.109Z,23.67
2019-02-27T04:26:54.027Z,19.83
2019-02-27T04:29:21.031Z,19.53
2019-02-27T04:31:48.011Z,18.40
2019-02-27T04:34:14.954Z,19.93
2019-02-27T04:36:41.860Z,22.53
2019-02-27T04:39:08.803Z,24.00
2019-02-27T04:41:35.712Z,22.57
2019-02-27T04:44:05.298Z,21.53
2019-02-27T04:46:31.511Z,23.47
2019-02-27T04:48:58.447Z,21.00
2019-02-27T04:51:25.341Z,21.70
2019-02-27T04:53:52.321Z,24.47
2019-02-27T04:56:23.159Z,18.07
2019-02-27T04:58:48.039Z,17.63
2019-02-27T05:01:14.961Z,24.03
2019-02-27T05:03:41.897Z,23.63
2019-02-27T05:06:08.983Z,23.00
2019-02-27T05:08:35.863Z,23.57
2019-02-27T05:11:02.799Z,20.70
2019-02-27T05:13:29.711Z,21.77
2019-02-27T05:15:56.651Z,19.53
2019-02-27T05:18:23.538Z,20.83
2019-02-27T05:20:50.480Z,21.03
2019-02-27T05:23:17.381Z,21.27
2019-02-27T05:25:44.347Z,21.90
2019-02-27T05:28:11.282Z,20.90
2019-02-27T05:30:38.250Z,21.80
2019-02-27T05:33:05.208Z,20.90
2019-02-27T05:35:32.157Z,19.73
2019-02-27T05:37:59.098Z,20.00
2019-02-27T05:40:26.645Z,22.80
2019-02-27T05:42:53.605Z,26.10
2019-02-27T05:45:23.371Z,27.37
2019-02-27T05:47:50.270Z,18.67
2019-02-27T05:50:17.194Z,23.20
2019-02-27T05:52:48.397Z,24.43
2019-02-27T05:55:13.032Z,19.53
2019-02-27T05:57:39.936Z,22.87
2019-02-27T06:00:10.726Z,21.90
2019-02-27T06:02:37.722Z,26.47
2019-02-27T06:05:04.773Z,22.53
2019-02-27T06:07:31.727Z,26.73
2019-02-27T06:09:58.695Z,29.47
2019-02-27T06:12:25.671Z,21.70
2019-02-27T06:14:54.862Z,25.77
2019-02-27T06:17:21.612Z,24.63
2019-02-27T06:19:48.599Z,19.60
2019-02-27T06:22:15.528Z,25.60
2019-02-27T06:24:43.067Z,26.83
2019-02-27T06:27:11.388Z,22.17
2019-02-27T06:29:38.394Z,22.20
2019-02-27T06:32:05.339Z,20.67
2019-02-27T06:34:32.240Z,25.63
2019-02-27T06:36:59.180Z,20.30
2019-02-27T06:39:26.072Z,25.83
2019-02-27T06:41:53.040Z,22.80
2019-02-27T06:44:19.957Z,27.30
2019-02-27T06:46:46.900Z,26.13
2019-02-27T06:49:17.505Z,21.73
2019-02-27T06:51:42.636Z,22.80
2019-02-27T06:54:09.527Z,27.63
2019-02-27T06:56:36.486Z,23.30
2019-02-27T06:59:03.402Z,22.60
2019-02-27T07:01:30.323Z,23.20
2019-02-27T07:03:57.203Z,21.93
2019-02-27T07:06:24.155Z,24.43
2019-02-27T07:08:51.079Z,25.47
2019-02-27T07:11:18.561Z,24.90
2019-02-27T07:13:45.458Z,21.00
2019-02-27T07:16:12.386Z,28.43
2019-02-27T07:18:41.866Z,25.17
2019-02-27T07:21:08.250Z,29.63
2019-02-27T07:23:35.359Z,25.07
2019-02-27T07:26:02.322Z,28.07
2019-02-27T07:28:29.220Z,27.23
2019-02-27T07:30:56.212Z,23.10
2019-02-27T07:33:23.123Z,24.43
2019-02-27T07:35:50.053Z,23.50
2019-02-27T07:38:21.402Z,27.90
2019-02-27T07:40:45.787Z,24.40
2019-02-27T07:43:12.658Z,27.17
2019-02-27T07:45:39.640Z,33.47
2019-02-27T07:48:06.569Z,26.03
2019-02-27T07:50:33.480Z,23.57
2019-02-27T07:53:00.426Z,22.20
2019-02-27T07:55:28.520Z,24.83
2019-02-27T07:57:58.407Z,23.63
2019-02-27T08:00:26.240Z,20.63
2019-02-27T08:02:53.282Z,24.63
2019-02-27T08:05:20.215Z,24.97
2019-02-27T08:07:49.041Z,25.20
2019-02-27T08:10:17.402Z,24.70
2019-02-27T08:12:44.348Z,21.13
2019-02-27T08:15:13.672Z,19.97
2019-02-27T08:17:40.777Z,24.93
2019-02-27T08:20:07.751Z,21.73
2019-02-27T08:22:34.713Z,24.87
2019-02-27T08:25:01.637Z,21.43
2019-02-27T08:27:28.588Z,21.47
2019-02-27T08:29:55.563Z,19.60
2019-02-27T08:32:22.546Z,18.83
2019-02-27T08:34:49.468Z,24.87
2019-02-27T08:37:16.434Z,16.33
2019-02-27T08:39:43.364Z,24.03
2019-02-27T08:42:10.343Z,19.43
2019-02-27T08:44:37.282Z,21.93
2019-02-27T08:47:04.435Z,18.50
2019-02-27T08:49:31.932Z,17.20
2019-02-27T08:51:59.086Z,18.90
2019-02-27T08:54:26.281Z,16.53
2019-02-27T08:56:53.248Z,21.80
2019-02-27T08:59:20.169Z,28.97
2019-02-27T09:01:47.112Z,30.03
2019-02-27T09:04:14.059Z,23.20
2019-02-27T09:06:41.010Z,29.13
2019-02-27T09:09:08.284Z,26.97
2019-02-27T09:11:37.202Z,27.27
2019-02-27T09:14:04.093Z,26.43
2019-02-27T09:16:31.032Z,32.63
2019-02-27T09:18:57.993Z,21.53
2019-02-27T09:21:27.891Z,29.30
2019-02-27T09:23:53.815Z,33.63
2019-02-27T09:26:20.756Z,28.20
2019-02-27T09:28:47.748Z,23.20
2019-02-27T09:31:14.686Z,22.13
2019-02-27T09:33:41.643Z,24.40
2019-02-27T09:36:10.356Z,25.20
2019-02-27T09:38:37.497Z,28.37
2019-02-27T09:41:04.426Z,19.53
2019-02-27T09:43:32.342Z,25.00
2019-02-27T09:45:59.431Z,25.00
2019-02-27T09:48:26.423Z,22.83
2019-02-27T09:50:53.529Z,28.30
2019-02-27T09:53:20.494Z,20.60
2019-02-27T09:55:47.496Z,28.20
2019-02-27T09:58:14.542Z,21.70
2019-02-27T10:00:46.314Z,19.67
2019-02-27T10:03:13.285Z,22.10
2019-02-27T10:05:40.856Z,22.03
2019-02-27T10:08:08.654Z,25.93
2019-02-27T10:10:35.592Z,20.80
2019-02-27T10:13:03.327Z,17.73
2019-02-27T10:15:31.069Z,20.97
2019-02-27T10:17:58.057Z,18.07
2019-02-27T10:20:24.992Z,19.17
2019-02-27T10:22:53.266Z,20.43
2019-02-27T10:25:20.846Z,20.03
2019-02-27T10:27:47.837Z,11.90
2019-02-27T10:30:16.669Z,14.03
2019-02-27T10:32:43.809Z,14.63
2019-02-27T10:35:11.144Z,15.23
2019-02-27T10:37:39.182Z,15.70
2019-02-27T10:40:08.767Z,12.33
2019-02-27T10:42:37.389Z,12.53
2019-02-27T10:45:07.781Z,20.23
2019-02-27T10:47:36.259Z,13.37
2019-02-27T10:50:03.173Z,12.70
2019-02-27T10:52:30.175Z,12.20
2019-02-27T10:54:57.143Z,15.53
2019-02-27T10:57:24.205Z,11.27
2019-02-27T10:59:51.197Z,11.70
2019-02-27T11:02:18.452Z,13.10
2019-02-27T11:04:45.601Z,9.63
2019-02-27T11:07:13.184Z,8.37
2019-02-27T11:09:42.055Z,9.30
2019-02-27T11:12:09.099Z,9.50
2019-02-27T11:14:36.090Z,7.50
2019-02-27T11:17:03.435Z,6.90
2019-02-27T11:19:30.489Z,8.90
2019-02-27T11:21:58.417Z,7.73
2019-02-27T11:24:26.331Z,7.60
2019-02-27T11:26:53.269Z,8.87
2019-02-27T11:29:23.538Z,6.30
2019-02-27T11:31:49.121Z,4.40
2019-02-27T11:34:16.304Z,6.83
2019-02-27T11:36:43.256Z,9.10
2019-02-27T11:39:10.947Z,10.90
2019-02-27T11:41:37.903Z,8.60
2019-02-27T11:44:04.971Z,14.10
2019-02-27T11:46:31.906Z,17.97
2019-02-27T11:48:59.716Z,8.13
2019-02-27T11:51:29.031Z,9.80
2019-02-27T11:53:56.002Z,10.73
2019-02-27T11:56:22.931Z,12.83
2019-02-27T11:58:49.878Z,9.43
2019-02-27T12:01:16.873Z,13.33
2019-02-27T12:03:45.940Z,8.30
2019-02-27T12:06:12.684Z,9.93
2019-02-27T12:08:39.624Z,11.67
2019-02-27T12:11:06.679Z,9.07
2019-02-27T12:13:34.904Z,11.80
2019-02-27T12:16:02.681Z,10.90
2019-02-27T12:18:32.215Z,12.80
2019-02-27T12:20:58.456Z,11.87
2019-02-27T12:23:25.647Z,12.67
2019-02-27T12:25:52.637Z,8.83
2019-02-27T12:28:19.576Z,7.87
2019-02-27T12:30:46.579Z,11.13
2019-02-27T12:33:13.800Z,8.43
2019-02-27T12:35:44.161Z,21.23
2019-02-27T12:38:11.401Z,7.50
2019-02-27T12:40:38.570Z,8.73
2019-02-27T12:43:05.496Z,7.13
2019-02-27T12:45:32.563Z,16.07
2019-02-27T12:47:59.496Z,11.00
2019-02-27T12:50:30.856Z,8.07
2019-02-27T12:52:55.984Z,6.37
2019-02-27T12:55:24.309Z,5.40
2019-02-27T12:57:52.403Z,7.70
2019-02-27T13:00:22.599Z,6.57
2019-02-27T13:02:49.861Z,4.50
2019-02-27T13:05:16.996Z,6.07
2019-02-27T13:07:44.696Z,4.80
2019-02-27T13:10:14.773Z,6.30
2019-02-27T13:12:41.744Z,8.30
2019-02-27T13:15:09.603Z,9.53
2019-02-27T13:17:36.592Z,5.97
2019-02-27T13:20:05.227Z,9.83
2019-02-27T13:22:32.193Z,5.90
2019-02-27T13:24:59.150Z,8.73
2019-02-27T13:27:26.169Z,7.27
2019-02-27T13:29:56.812Z,5.77
2019-02-27T13:32:26.397Z,6.20
2019-02-27T13:34:50.870Z,7.87
2019-02-27T13:37:18.718Z,6.17
2019-02-27T13:39:45.805Z,7.70
2019-02-27T13:42:12.759Z,8.40
2019-02-27T13:44:39.682Z,8.30
2019-02-27T13:47:06.694Z,11.30
2019-02-27T13:49:33.636Z,11.07
2019-02-27T13:52:00.621Z,5.50
2019-02-27T13:54:27.568Z,6.80
2019-02-27T13:56:54.508Z,6.97
2019-02-27T13:59:21.454Z,9.10
2019-02-27T14:01:48.368Z,8.67
2019-02-27T14:04:15.352Z,7.23
2019-02-27T14:06:43.602Z,7.33
2019-02-27T14:09:11.166Z,10.63
2019-02-27T14:11:38.086Z,8.60
2019-02-27T14:14:05.065Z,8.43
2019-02-27T14:16:34.539Z,8.40
2019-02-27T14:19:00.962Z,8.50
2019-02-27T14:21:28.006Z,9.70
2019-02-27T14:23:55.075Z,9.37
2019-02-27T14:26:22.102Z,7.27
2019-02-27T14:28:49.079Z,8.70
2019-02-27T14:31:16.039Z,7.70
2019-02-27T14:33:43.025Z,9.27
2019-02-27T14:36:09.958Z,10.80
2019-02-27T14:38:36.933Z,8.60
2019-02-27T14:41:03.940Z,9.43
2019-02-27T14:43:30.888Z,12.00
2019-02-27T14:45:57.810Z,10.27
2019-02-27T14:48:24.810Z,10.13
2019-02-27T14:50:51.748Z,9.93
2019-02-27T14:53:19.831Z,14.13
2019-02-27T14:55:46.883Z,11.00
2019-02-27T14:58:13.847Z,10.47
2019-02-27T15:00:41.183Z,10.10
2019-02-27T15:03:08.299Z,9.40
2019-02-27T15:05:36.768Z,10.10
2019-02-27T15:08:04.144Z,13.27
2019-02-27T15:10:31.108Z,11.87
2019-02-27T15:12:58.057Z,8.50
2019-02-27T15:15:27.836Z,9.77
2019-02-27T15:17:54.764Z,12.70
2019-02-27T15:20:22.441Z,15.60
2019-02-27T15:22:52.552Z,12.00
2019-02-27T15:25:18.248Z,9.77
2019-02-27T15:27:45.312Z,9.67
2019-02-27T15:30:14.803Z,10.00
2019-02-27T15:32:41.800Z,11.50
2019-02-27T15:35:09.015Z,9.20
2019-02-27T15:37:37.438Z,11.10
2019-02-27T15:40:05.520Z,11.00
2019-02-27T15:42:32.448Z,16.43
2019-02-27T15:44:59.461Z,10.40
2019-02-27T15:47:26.988Z,12.70
2019-02-27T15:49:55.253Z,17.23
2019-02-27T15:52:22.185Z,12.10
2019-02-27T15:54:49.211Z,9.00
2019-02-27T15:57:17.678Z,10.33
2019-02-27T15:59:45.024Z,10.37
2019-02-27T16:02:12.011Z,9.57
2019-02-27T16:04:38.968Z,10.27
2019-02-27T16:07:05.879Z,9.33
2019-02-27T16:09:32.945Z,7.97
2019-02-27T16:11:59.923Z,9.60
2019-02-27T16:14:26.904Z,11.67
2019-02-27T16:16:54.124Z,11.73
2019-02-27T16:19:22.742Z,10.17
2019-02-27T16:21:49.686Z,8.53
2019-02-27T16:24:16.655Z,13.40
2019-02-27T16:26:43.642Z,10.13
2019-02-27T16:29:10.619Z,12.90
2019-02-27T16:31:40.025Z,10.47
2019-02-27T16:34:06.464Z,10.00
2019-02-27T16:36:36.130Z,9.67
2019-02-27T16:39:07.387Z,13.93
2019-02-27T16:41:32.883Z,10.50
2019-02-27T16:43:59.842Z,8.90
2019-02-27T16:46:26.835Z,9.87
2019-02-27T16:48:53.772Z,9.13
2019-02-27T16:51:20.748Z,11.50
2019-02-27T16:53:52.423Z,10.00
2019-02-27T16:56:16.701Z,11.73
2019-02-27T16:58:43.636Z,11.97
2019-02-27T17:01:10.874Z,13.33
2019-02-27T17:03:37.813Z,11.50
2019-02-27T17:06:04.802Z,15.77
2019-02-27T17:08:33.093Z,15.70
2019-02-27T17:11:00.844Z,14.10
2019-02-27T17:13:27.808Z,15.10
2019-02-27T17:15:54.798Z,13.20
2019-02-27T17:18:27.856Z,17.03
2019-02-27T17:20:50.601Z,11.83
2019-02-27T17:23:17.557Z,12.03
2019-02-27T17:25:44.520Z,11.37
2019-02-27T17:28:11.470Z,16.00
2019-02-27T17:30:38.448Z,13.67
2019-02-27T17:33:05.493Z,15.27
2019-02-27T17:35:32.455Z,15.03
2019-02-27T17:37:59.403Z,13.73
2019-02-27T17:40:26.409Z,15.57
2019-02-27T17:42:54.397Z,17.00
2019-02-27T17:45:21.531Z,26.20
2019-02-27T17:47:48.451Z,28.67
2019-02-27T17:50:15.528Z,20.10
2019-02-27T17:52:42.461Z,24.90
2019-02-27T17:55:10.412Z,26.77
2019-02-27T17:57:37.394Z,17.53
2019-02-27T18:00:06.929Z,16.20
2019-02-27T18:02:34.069Z,25.13
2019-02-27T18:05:01.183Z,19.90
2019-02-27T18:07:34.218Z,19.60
2019-02-27T18:09:58.395Z,17.93
2019-02-27T18:12:27.003Z,40.63
2019-02-27T18:14:54.661Z,17.70
2019-02-27T18:17:21.628Z,19.93
2019-02-27T18:19:50.181Z,19.33
2019-02-27T18:22:17.472Z,25.73
2019-02-27T18:24:44.411Z,22.93
2019-02-27T18:27:11.662Z,23.17
2019-02-27T18:29:41.147Z,19.70
2019-02-27T18:32:07.460Z,16.60
2019-02-27T18:34:34.703Z,19.53
2019-02-27T18:37:01.671Z,18.90
2019-02-27T18:39:28.604Z,20.33
2019-02-27T18:41:55.904Z,18.77
2019-02-27T18:44:22.968Z,21.57
2019-02-27T18:46:49.933Z,25.80
2019-02-27T18:49:18.636Z,20.87
2019-02-27T18:51:46.928Z,20.40
2019-02-27T18:54:14.373Z,19.73
2019-02-27T18:56:41.363Z,21.23
2019-02-27T18:59:08.279Z,17.73
2019-02-27T19:01:35.241Z,16.87
2019-02-27T19:04:02.161Z,19.87
2019-02-27T19:06:29.105Z,19.57
2019-02-27T19:08:56.091Z,20.80
2019-02-27T19:11:23.045Z,20.23
2019-02-27T19:13:50.023Z,18.73
2019-02-27T19:16:17.449Z,21.30
2019-02-27T19:18:45.841Z,18.33
2019-02-27T19:21:12.800Z,22.03
2019-02-27T19:23:39.951Z,16.83
2019-02-27T19:26:09.406Z,22.97
2019-02-27T19:28:36.621Z,20.40
2019-02-27T19:31:03.621Z,18.77
2019-02-27T19:33:32.523Z,22.23
2019-02-27T19:35:59.561Z,18.97
2019-02-27T19:38:26.535Z,19.07
2019-02-27T19:40:53.457Z,22.23
2019-02-27T19:43:20.985Z,21.60
2019-02-27T19:45:48.775Z,18.93
2019-02-27T19:48:15.829Z,18.20
2019-02-27T19:50:46.250Z,19.60
2019-02-27T19:53:11.860Z,21.07
2019-02-27T19:55:38.888Z,19.73
2019-02-27T19:58:05.858Z,25.43
2019-02-27T20:00:35.043Z,23.00
2019-02-27T20:03:02.106Z,24.07
2019-02-27T20:05:29.164Z,18.50
2019-02-27T20:07:56.183Z,21.80
2019-02-27T20:10:23.185Z,19.93
2019-02-27T20:12:52.985Z,19.73
2019-02-27T20:15:19.328Z,17.23
2019-02-27T20:17:46.389Z,21.13
2019-02-27T20:20:14.230Z,18.67
2019-02-27T20:22:42.209Z,18.70
2019-02-27T20:25:10.838Z,19.73
2019-02-27T20:27:37.810Z,21.73
2019-02-27T20:30:06.023Z,22.43
2019-02-27T20:32:32.969Z,23.17
2019-02-27T20:34:59.970Z,24.63
2019-02-27T20:37:26.917Z,24.17
2019-02-27T20:39:58.288Z,29.30
2019-02-27T20:42:22.824Z,20.90
2019-02-27T20:44:49.852Z,23.30
2019-02-27T20:47:16.785Z,21.90
2019-02-27T20:49:44.695Z,22.30
2019-02-27T20:52:14.942Z,25.47
2019-02-27T20:54:41.253Z,23.90
2019-02-27T20:57:09.005Z,25.60
2019-02-27T20:59:36.142Z,23.93
2019-02-27T21:02:03.322Z,21.23
2019-02-27T21:04:32.284Z,23.10
2019-02-27T21:06:59.138Z,21.27
2019-02-27T21:09:26.324Z,25.77
2019-02-27T21:11:53.269Z,22.50
2019-02-27T21:14:20.546Z,23.10
2019-02-27T21:16:49.235Z,16.67
2019-02-27T21:19:16.326Z,16.83
2019-02-27T21:21:43.270Z,25.63
2019-02-27T21:24:10.313Z,19.33
2019-02-27T21:26:37.256Z,21.63
2019-02-27T21:29:05.260Z,27.93
2019-02-27T21:31:33.156Z,29.80
2019-02-27T21:34:00.114Z,23.27
2019-02-27T21:36:27.168Z,26.20
2019-02-27T21:38:54.199Z,31.60
2019-02-27T21:41:21.175Z,29.27
2019-02-27T21:43:48.226Z,35.33
2019-02-27T21:46:15.221Z,31.60
2019-02-27T21:48:42.219Z,27.33
2019-02-27T21:51:11.042Z,29.23
2019-02-27T21:53:38.375Z,28.77
2019-02-27T21:56:06.255Z,25.73
2019-02-27T21:58:33.244Z,25.67
2019-02-27T22:01:00.252Z,27.17
2019-02-27T22:03:27.273Z,29.37
2019-02-27T22:05:54.259Z,27.30
2019-02-27T22:08:21.611Z,26.30
2019-02-27T22:10:53.109Z,25.77
2019-02-27T22:13:28.594Z,24.30
2019-02-27T22:15:46.355Z,31.87
2019-02-27T22:18:13.369Z,26.70
2019-02-27T22:20:40.394Z,26.53
2019-02-27T22:23:07.385Z,28.37
2019-02-27T22:25:34.402Z,28.90
2019-02-27T22:28:01.372Z,29.97
2019-02-27T22:30:31.726Z,27.80
2019-02-27T22:32:57.654Z,33.70
2019-02-27T22:35:24.686Z,30.47
2019-02-27T22:37:52.814Z,24.00
2019-02-27T22:40:20.061Z,27.87
2019-02-27T22:42:48.654Z,32.40
2019-02-27T22:45:16.652Z,28.87
2019-02-27T22:47:43.615Z,25.70
2019-02-27T22:50:12.314Z,31.03
2019-02-27T22:52:39.264Z,23.00
2019-02-27T22:55:07.303Z,26.53
2019-02-27T22:57:35.271Z,23.93
2019-02-27T23:00:02.789Z,25.17
2019-02-27T23:02:30.348Z,28.60
2019-02-27T23:04:57.330Z,27.93
2019-02-27T23:07:24.271Z,25.53
2019-02-27T23:09:52.146Z,23.50
2019-02-27T23:12:19.114Z,28.20
2019-02-27T23:14:46.067Z,36.40
2019-02-27T23:17:13.046Z,27.73
2019-02-27T23:19:39.975Z,28.77
2019-02-27T23:22:07.796Z,23.27
2019-02-27T23:24:34.769Z,27.10
2019-02-27T23:27:03.294Z,24.80
2019-02-27T23:29:30.296Z,25.83
2019-02-27T23:31:57.321Z,31.40
2019-02-27T23:34:24.503Z,29.20
2019-02-27T23:36:55.635Z,24.63
2019-02-27T23:39:20.533Z,31.23
2019-02-27T23:41:47.509Z,20.43
2019-02-27T23:44:14.468Z,27.93
2019-02-27T23:46:48.719Z,23.77
2019-02-27T23:49:10.343Z,27.00
2019-02-27T23:51:37.300Z,22.47
2019-02-27T23:54:04.276Z,25.37
2019-02-27T23:56:32.716Z,27.50
2019-02-27T23:59:02.334Z,23.90
